sensor_id;sensor_type;location;lat;lon;timestamp;temperature;humidity
15262;DHT22;7733;51.554;13.590;2023-03-24T00:00:19;11.90;99.90
15262;DHT22;7733;51.554;13.590;2023-03-24T00:02:48;12.00;99.90
15262;DHT22;7733;51.554;13.590;2023-03-24T00:05:17;12.00;99.90
15262;DHT22;7733;51.554;13.590;2023-03-24T00:07:46;11.90;99.90
15262;DHT22;7733;51.554;13.590;2023-03-24T00:10:15;12.00;99.90
15262;DHT22;7733;51.554;13.590;2023-03-24T00:12:44;12.00;99.90
15262;DHT22;7733;51.554;13.590;2023-03-24T00:15:14;12.10;99.90
15262;DHT22;7733;51.554;13.590;2023-03-24T00:17:41;12.10;99.90
15262;DHT22;7733;51.554;13.590;2023-03-24T00:20:10;12.20;99.90
15262;DHT22;7733;51.554;13.590;2023-03-24T00:22:45;12.20;99.90
15262;DHT22;7733;51.554;13.590;2023-03-24T00:25:24;12.10;99.90
15262;DHT22;7733;51.554;13.590;2023-03-24T00:28:01;12.10;99.90
15262;DHT22;7733;51.554;13.590;2023-03-24T00:30:30;12.10;99.90
15262;DHT22;7733;51.554;13.590;2023-03-24T00:32:56;12.10;99.90
15262;DHT22;7733;51.554;13.590;2023-03-24T00:35:23;12.00;99.90
15262;DHT22;7733;51.554;13.590;2023-03-24T00:37:49;12.00;99.90
15262;DHT22;7733;51.554;13.590;2023-03-24T00:40:17;11.90;99.90
15262;DHT22;7733;51.554;13.590;2023-03-24T00:42:46;11.90;99.90
15262;DHT22;7733;51.554;13.590;2023-03-24T00:45:18;11.90;99.90
15262;DHT22;7733;51.554;13.590;2023-03-24T00:47:47;11.90;99.90
15262;DHT22;7733;51.554;13.590;2023-03-24T00:50:19;11.90;99.90
15262;DHT22;7733;51.554;13.590;2023-03-24T00:52:51;11.90;99.90
15262;DHT22;7733;51.554;13.590;2023-03-24T00:55:18;11.90;99.90
15262;DHT22;7733;51.554;13.590;2023-03-24T00:57:46;12.00;99.90
15262;DHT22;7733;51.554;13.590;2023-03-24T01:00:19;12.10;99.90
15262;DHT22;7733;51.554;13.590;2023-03-24T01:02:49;12.00;99.90
15262;DHT22;7733;51.554;13.590;2023-03-24T01:05:22;12.10;99.90
15262;DHT22;7733;51.554;13.590;2023-03-24T01:07:55;12.10;99.90
15262;DHT22;7733;51.554;13.590;2023-03-24T01:10:22;12.20;99.90
15262;DHT22;7733;51.554;13.590;2023-03-24T01:12:52;12.30;99.90
15262;DHT22;7733;51.554;13.590;2023-03-24T01:15:21;12.30;99.90
15262;DHT22;7733;51.554;13.590;2023-03-24T01:17:50;12.30;99.90
15262;DHT22;7733;51.554;13.590;2023-03-24T01:20:18;12.30;99.90
15262;DHT22;7733;51.554;13.590;2023-03-24T01:22:44;12.40;99.90
15262;DHT22;7733;51.554;13.590;2023-03-24T01:25:19;12.40;99.90
15262;DHT22;7733;51.554;13.590;2023-03-24T01:27:48;12.40;99.90
15262;DHT22;7733;51.554;13.590;2023-03-24T01:30:17;12.40;99.90
15262;DHT22;7733;51.554;13.590;2023-03-24T01:32:45;12.40;99.90
15262;DHT22;7733;51.554;13.590;2023-03-24T01:35:11;12.50;99.90
15262;DHT22;7733;51.554;13.590;2023-03-24T01:37:38;12.50;99.90
15262;DHT22;7733;51.554;13.590;2023-03-24T01:40:06;12.60;99.90
15262;DHT22;7733;51.554;13.590;2023-03-24T01:42:37;12.60;99.90
15262;DHT22;7733;51.554;13.590;2023-03-24T01:48:13;12.70;99.90
15262;DHT22;7733;51.554;13.590;2023-03-24T01:50:48;12.60;99.90
15262;DHT22;7733;51.554;13.590;2023-03-24T01:53:27;12.60;99.90
15262;DHT22;7733;51.554;13.590;2023-03-24T01:55:57;12.60;99.90
15262;DHT22;7733;51.554;13.590;2023-03-24T01:58:27;12.60;99.90
15262;DHT22;7733;51.554;13.590;2023-03-24T02:00:55;12.60;99.90
15262;DHT22;7733;51.554;13.590;2023-03-24T02:03:24;12.50;99.90
15262;DHT22;7733;51.554;13.590;2023-03-24T02:05:55;12.50;99.90
15262;DHT22;7733;51.554;13.590;2023-03-24T02:08:33;12.60;99.90
15262;DHT22;7733;51.554;13.590;2023-03-24T02:11:01;12.60;99.90
15262;DHT22;7733;51.554;13.590;2023-03-24T02:13:27;12.70;99.90
15262;DHT22;7733;51.554;13.590;2023-03-24T02:18:47;12.60;99.90
15262;DHT22;7733;51.554;13.590;2023-03-24T02:27:27;12.50;99.90
15262;DHT22;7733;51.554;13.590;2023-03-24T02:41:34;12.40;99.90
15262;DHT22;7733;51.554;13.590;2023-03-24T02:55:59;12.40;99.90
15262;DHT22;7733;51.554;13.590;2023-03-24T02:58:37;12.40;99.90
15262;DHT22;7733;51.554;13.590;2023-03-24T03:01:14;12.40;99.90
15262;DHT22;7733;51.554;13.590;2023-03-24T03:03:57;12.40;99.90
15262;DHT22;7733;51.554;13.590;2023-03-24T03:06:34;12.40;99.90
15262;DHT22;7733;51.554;13.590;2023-03-24T03:09:08;12.40;99.90
15262;DHT22;7733;51.554;13.590;2023-03-24T03:11:38;12.30;99.90
15262;DHT22;7733;51.554;13.590;2023-03-24T03:14:17;12.30;99.90
15262;DHT22;7733;51.554;13.590;2023-03-24T03:16:53;12.30;99.90
15262;DHT22;7733;51.554;13.590;2023-03-24T03:19:33;12.30;99.90
15262;DHT22;7733;51.554;13.590;2023-03-24T03:22:07;12.20;99.90
15262;DHT22;7733;51.554;13.590;2023-03-24T03:24:45;12.30;99.90
15262;DHT22;7733;51.554;13.590;2023-03-24T03:27:21;12.20;99.90
15262;DHT22;7733;51.554;13.590;2023-03-24T03:30:14;12.20;99.90
15262;DHT22;7733;51.554;13.590;2023-03-24T03:32:53;12.20;99.90
15262;DHT22;7733;51.554;13.590;2023-03-24T03:35:40;12.30;99.90
15262;DHT22;7733;51.554;13.590;2023-03-24T03:38:31;12.30;99.90
15262;DHT22;7733;51.554;13.590;2023-03-24T03:41:18;12.30;99.90
15262;DHT22;7733;51.554;13.590;2023-03-24T03:43:46;12.30;99.90
15262;DHT22;7733;51.554;13.590;2023-03-24T03:46:14;12.30;99.90
15262;DHT22;7733;51.554;13.590;2023-03-24T03:48:42;12.20;99.90
15262;DHT22;7733;51.554;13.590;2023-03-24T03:51:10;12.20;99.90
15262;DHT22;7733;51.554;13.590;2023-03-24T03:53:48;12.20;99.90
15262;DHT22;7733;51.554;13.590;2023-03-24T03:56:22;12.10;99.90
15262;DHT22;7733;51.554;13.590;2023-03-24T03:58:50;12.00;99.90
15262;DHT22;7733;51.554;13.590;2023-03-24T04:01:20;12.00;99.90
15262;DHT22;7733;51.554;13.590;2023-03-24T04:07:16;12.00;99.90
15262;DHT22;7733;51.554;13.590;2023-03-24T04:10:03;12.00;99.90
15262;DHT22;7733;51.554;13.590;2023-03-24T04:15:22;12.10;99.90
15262;DHT22;7733;51.554;13.590;2023-03-24T04:18:15;12.00;99.90
15262;DHT22;7733;51.554;13.590;2023-03-24T04:26:34;11.80;99.90
15262;DHT22;7733;51.554;13.590;2023-03-24T04:35:01;11.90;99.90
15262;DHT22;7733;51.554;13.590;2023-03-24T04:37:32;11.90;99.90
15262;DHT22;7733;51.554;13.590;2023-03-24T04:40:08;11.80;99.90
15262;DHT22;7733;51.554;13.590;2023-03-24T04:42:48;11.90;99.90
15262;DHT22;7733;51.554;13.590;2023-03-24T04:45:17;11.90;99.90
15262;DHT22;7733;51.554;13.590;2023-03-24T04:47:51;11.80;99.90
15262;DHT22;7733;51.554;13.590;2023-03-24T04:50:35;11.80;99.90
15262;DHT22;7733;51.554;13.590;2023-03-24T04:53:06;11.80;99.90
15262;DHT22;7733;51.554;13.590;2023-03-24T04:58:27;11.90;99.90
15262;DHT22;7733;51.554;13.590;2023-03-24T05:00:54;11.80;99.90
15262;DHT22;7733;51.554;13.590;2023-03-24T05:03:21;11.80;99.90
15262;DHT22;7733;51.554;13.590;2023-03-24T05:05:48;11.80;99.90
15262;DHT22;7733;51.554;13.590;2023-03-24T05:08:16;11.80;99.90
15262;DHT22;7733;51.554;13.590;2023-03-24T05:10:43;11.80;99.90
15262;DHT22;7733;51.554;13.590;2023-03-24T05:13:10;11.90;99.90
15262;DHT22;7733;51.554;13.590;2023-03-24T05:15:37;11.90;99.90
15262;DHT22;7733;51.554;13.590;2023-03-24T05:18:04;11.90;99.90
15262;DHT22;7733;51.554;13.590;2023-03-24T05:20:31;11.90;99.90
15262;DHT22;7733;51.554;13.590;2023-03-24T05:22:56;11.90;99.90
15262;DHT22;7733;51.554;13.590;2023-03-24T05:25:22;12.00;99.90
15262;DHT22;7733;51.554;13.590;2023-03-24T05:27:48;11.90;99.90
15262;DHT22;7733;51.554;13.590;2023-03-24T05:30:14;11.90;99.90
15262;DHT22;7733;51.554;13.590;2023-03-24T05:32:40;12.00;99.90
15262;DHT22;7733;51.554;13.590;2023-03-24T05:35:07;12.00;99.90
15262;DHT22;7733;51.554;13.590;2023-03-24T05:37:33;12.00;99.90
15262;DHT22;7733;51.554;13.590;2023-03-24T05:39:59;12.00;99.90
15262;DHT22;7733;51.554;13.590;2023-03-24T05:42:24;12.00;99.90
15262;DHT22;7733;51.554;13.590;2023-03-24T05:44:50;12.10;99.90
15262;DHT22;7733;51.554;13.590;2023-03-24T05:47:16;12.10;99.90
15262;DHT22;7733;51.554;13.590;2023-03-24T05:49:45;12.00;99.90
15262;DHT22;7733;51.554;13.590;2023-03-24T05:52:12;12.10;99.90
15262;DHT22;7733;51.554;13.590;2023-03-24T05:54:40;12.20;99.90
15262;DHT22;7733;51.554;13.590;2023-03-24T05:57:11;12.20;99.90
15262;DHT22;7733;51.554;13.590;2023-03-24T05:59:40;12.20;99.90
15262;DHT22;7733;51.554;13.590;2023-03-24T06:02:07;12.30;99.90
15262;DHT22;7733;51.554;13.590;2023-03-24T06:04:33;12.40;99.90
15262;DHT22;7733;51.554;13.590;2023-03-24T06:06:59;12.40;99.90
15262;DHT22;7733;51.554;13.590;2023-03-24T06:09:29;12.50;99.90
15262;DHT22;7733;51.554;13.590;2023-03-24T06:12:01;12.50;99.90
15262;DHT22;7733;51.554;13.590;2023-03-24T06:14:27;12.50;99.90
15262;DHT22;7733;51.554;13.590;2023-03-24T06:16:54;12.50;99.90
15262;DHT22;7733;51.554;13.590;2023-03-24T06:19:24;12.40;99.90
15262;DHT22;7733;51.554;13.590;2023-03-24T06:21:52;12.40;99.90
15262;DHT22;7733;51.554;13.590;2023-03-24T06:24:18;12.50;99.90
15262;DHT22;7733;51.554;13.590;2023-03-24T06:26:45;12.50;99.90
15262;DHT22;7733;51.554;13.590;2023-03-24T06:29:15;12.60;99.90
15262;DHT22;7733;51.554;13.590;2023-03-24T06:31:44;12.60;99.90
15262;DHT22;7733;51.554;13.590;2023-03-24T06:34:12;12.70;99.90
15262;DHT22;7733;51.554;13.590;2023-03-24T06:36:38;12.70;99.90
15262;DHT22;7733;51.554;13.590;2023-03-24T06:39:05;12.70;99.90
15262;DHT22;7733;51.554;13.590;2023-03-24T06:41:31;12.60;99.90
15262;DHT22;7733;51.554;13.590;2023-03-24T06:43:57;12.60;99.90
15262;DHT22;7733;51.554;13.590;2023-03-24T06:46:23;12.60;99.90
15262;DHT22;7733;51.554;13.590;2023-03-24T06:48:49;12.60;99.90
15262;DHT22;7733;51.554;13.590;2023-03-24T06:51:15;12.70;99.90
15262;DHT22;7733;51.554;13.590;2023-03-24T06:53:42;12.70;99.90
15262;DHT22;7733;51.554;13.590;2023-03-24T06:56:10;12.70;99.90
15262;DHT22;7733;51.554;13.590;2023-03-24T06:58:41;12.70;99.90
15262;DHT22;7733;51.554;13.590;2023-03-24T07:01:07;12.60;99.90
15262;DHT22;7733;51.554;13.590;2023-03-24T07:03:33;12.70;99.90
15262;DHT22;7733;51.554;13.590;2023-03-24T07:05:59;12.70;99.90
15262;DHT22;7733;51.554;13.590;2023-03-24T07:08:25;12.70;99.90
15262;DHT22;7733;51.554;13.590;2023-03-24T07:10:51;12.70;99.90
15262;DHT22;7733;51.554;13.590;2023-03-24T07:13:18;12.70;99.90
15262;DHT22;7733;51.554;13.590;2023-03-24T07:15:43;12.70;99.90
15262;DHT22;7733;51.554;13.590;2023-03-24T07:18:09;12.70;99.90
15262;DHT22;7733;51.554;13.590;2023-03-24T07:20:35;12.80;99.90
15262;DHT22;7733;51.554;13.590;2023-03-24T07:23:01;12.80;99.90
15262;DHT22;7733;51.554;13.590;2023-03-24T07:25:26;12.70;99.90
15262;DHT22;7733;51.554;13.590;2023-03-24T07:27:53;12.70;99.90
15262;DHT22;7733;51.554;13.590;2023-03-24T07:30:21;12.80;99.90
15262;DHT22;7733;51.554;13.590;2023-03-24T07:32:47;12.80;99.90
15262;DHT22;7733;51.554;13.590;2023-03-24T07:35:14;12.80;99.90
15262;DHT22;7733;51.554;13.590;2023-03-24T07:37:42;12.80;99.90
15262;DHT22;7733;51.554;13.590;2023-03-24T07:40:09;12.90;99.90
15262;DHT22;7733;51.554;13.590;2023-03-24T07:42:39;12.90;99.90
15262;DHT22;7733;51.554;13.590;2023-03-24T07:45:10;12.90;99.90
15262;DHT22;7733;51.554;13.590;2023-03-24T07:47:38;12.90;99.90
15262;DHT22;7733;51.554;13.590;2023-03-24T07:50:07;12.90;99.90
15262;DHT22;7733;51.554;13.590;2023-03-24T07:52:37;13.10;99.90
15262;DHT22;7733;51.554;13.590;2023-03-24T07:55:09;13.10;99.90
15262;DHT22;7733;51.554;13.590;2023-03-24T07:57:40;13.20;99.90
15262;DHT22;7733;51.554;13.590;2023-03-24T08:00:08;13.30;99.90
15262;DHT22;7733;51.554;13.590;2023-03-24T08:02:46;13.20;99.90
15262;DHT22;7733;51.554;13.590;2023-03-24T08:05:14;13.30;99.90
15262;DHT22;7733;51.554;13.590;2023-03-24T08:07:42;13.40;99.90
15262;DHT22;7733;51.554;13.590;2023-03-24T08:10:13;13.40;99.90
15262;DHT22;7733;51.554;13.590;2023-03-24T08:12:40;13.50;99.90
15262;DHT22;7733;51.554;13.590;2023-03-24T08:15:07;13.50;99.90
15262;DHT22;7733;51.554;13.590;2023-03-24T08:17:34;13.60;99.90
15262;DHT22;7733;51.554;13.590;2023-03-24T08:20:01;13.70;99.90
15262;DHT22;7733;51.554;13.590;2023-03-24T08:22:33;13.80;99.90
15262;DHT22;7733;51.554;13.590;2023-03-24T08:24:58;13.90;99.90
15262;DHT22;7733;51.554;13.590;2023-03-24T08:27:24;13.90;99.90
15262;DHT22;7733;51.554;13.590;2023-03-24T08:29:50;13.90;99.90
15262;DHT22;7733;51.554;13.590;2023-03-24T08:32:15;13.90;99.90
15262;DHT22;7733;51.554;13.590;2023-03-24T08:34:41;14.00;99.90
15262;DHT22;7733;51.554;13.590;2023-03-24T08:37:08;14.00;99.90
15262;DHT22;7733;51.554;13.590;2023-03-24T08:39:33;14.10;99.90
15262;DHT22;7733;51.554;13.590;2023-03-24T08:42:00;14.10;99.90
15262;DHT22;7733;51.554;13.590;2023-03-24T08:44:26;14.10;99.90
15262;DHT22;7733;51.554;13.590;2023-03-24T08:46:52;14.00;99.90
15262;DHT22;7733;51.554;13.590;2023-03-24T08:49:18;14.10;99.90
15262;DHT22;7733;51.554;13.590;2023-03-24T08:51:44;14.10;99.90
15262;DHT22;7733;51.554;13.590;2023-03-24T08:54:10;14.20;99.90
15262;DHT22;7733;51.554;13.590;2023-03-24T08:56:37;14.20;99.90
15262;DHT22;7733;51.554;13.590;2023-03-24T08:59:04;14.40;99.90
15262;DHT22;7733;51.554;13.590;2023-03-24T09:01:31;14.40;99.90
15262;DHT22;7733;51.554;13.590;2023-03-24T09:03:58;14.40;99.90
15262;DHT22;7733;51.554;13.590;2023-03-24T09:06:24;14.50;99.90
15262;DHT22;7733;51.554;13.590;2023-03-24T09:08:52;14.60;99.90
15262;DHT22;7733;51.554;13.590;2023-03-24T09:11:20;14.50;99.90
15262;DHT22;7733;51.554;13.590;2023-03-24T09:13:46;14.50;99.90
15262;DHT22;7733;51.554;13.590;2023-03-24T09:16:13;14.50;99.90
15262;DHT22;7733;51.554;13.590;2023-03-24T09:18:40;14.50;99.90
15262;DHT22;7733;51.554;13.590;2023-03-24T09:21:06;14.50;99.90
15262;DHT22;7733;51.554;13.590;2023-03-24T09:23:33;14.60;99.90
15262;DHT22;7733;51.554;13.590;2023-03-24T09:26:00;14.60;99.90
15262;DHT22;7733;51.554;13.590;2023-03-24T09:28:26;14.60;99.90
15262;DHT22;7733;51.554;13.590;2023-03-24T09:31:00;14.80;99.90
15262;DHT22;7733;51.554;13.590;2023-03-24T09:33:29;14.90;99.90
15262;DHT22;7733;51.554;13.590;2023-03-24T09:36:00;14.90;99.90
15262;DHT22;7733;51.554;13.590;2023-03-24T09:38:27;15.00;99.90
15262;DHT22;7733;51.554;13.590;2023-03-24T09:40:57;15.00;99.90
15262;DHT22;7733;51.554;13.590;2023-03-24T09:43:45;15.00;99.90
15262;DHT22;7733;51.554;13.590;2023-03-24T09:46:30;15.00;99.90
15262;DHT22;7733;51.554;13.590;2023-03-24T09:48:58;15.00;99.90
15262;DHT22;7733;51.554;13.590;2023-03-24T09:51:40;15.00;99.90
15262;DHT22;7733;51.554;13.590;2023-03-24T09:54:10;15.20;99.90
15262;DHT22;7733;51.554;13.590;2023-03-24T09:56:50;15.30;99.90
15262;DHT22;7733;51.554;13.590;2023-03-24T09:59:21;15.50;99.90
15262;DHT22;7733;51.554;13.590;2023-03-24T10:01:48;15.70;99.90
15262;DHT22;7733;51.554;13.590;2023-03-24T10:04:20;16.00;99.90
15262;DHT22;7733;51.554;13.590;2023-03-24T10:06:55;16.40;99.90
15262;DHT22;7733;51.554;13.590;2023-03-24T10:09:31;16.60;99.90
15262;DHT22;7733;51.554;13.590;2023-03-24T10:15:06;17.00;99.90
15262;DHT22;7733;51.554;13.590;2023-03-24T10:17:50;17.20;99.90
15262;DHT22;7733;51.554;13.590;2023-03-24T10:20:55;17.30;99.90
15262;DHT22;7733;51.554;13.590;2023-03-24T10:23:50;17.10;99.90
15262;DHT22;7733;51.554;13.590;2023-03-24T10:31:53;17.30;99.90
15262;DHT22;7733;51.554;13.590;2023-03-24T10:34:27;17.30;99.90
15262;DHT22;7733;51.554;13.590;2023-03-24T10:36:59;17.10;99.90
15262;DHT22;7733;51.554;13.590;2023-03-24T10:39:31;17.10;99.90
15262;DHT22;7733;51.554;13.590;2023-03-24T10:41:58;16.90;99.90
15262;DHT22;7733;51.554;13.590;2023-03-24T10:44:26;16.90;99.90
15262;DHT22;7733;51.554;13.590;2023-03-24T10:46:54;16.90;99.90
15262;DHT22;7733;51.554;13.590;2023-03-24T10:49:23;16.90;99.90
15262;DHT22;7733;51.554;13.590;2023-03-24T10:51:54;16.70;99.90
15262;DHT22;7733;51.554;13.590;2023-03-24T10:54:27;16.70;99.90
15262;DHT22;7733;51.554;13.590;2023-03-24T11:02:29;16.60;99.90
15262;DHT22;7733;51.554;13.590;2023-03-24T11:08:10;16.70;99.90
15262;DHT22;7733;51.554;13.590;2023-03-24T11:10:43;16.80;99.90
15262;DHT22;7733;51.554;13.590;2023-03-24T11:13:18;16.80;99.90
15262;DHT22;7733;51.554;13.590;2023-03-24T11:16:11;16.70;99.90
15262;DHT22;7733;51.554;13.590;2023-03-24T11:18:55;16.60;99.90
15262;DHT22;7733;51.554;13.590;2023-03-24T11:21:31;16.60;99.90
15262;DHT22;7733;51.554;13.590;2023-03-24T11:24:10;16.60;99.90
15262;DHT22;7733;51.554;13.590;2023-03-24T11:26:40;16.80;99.90
15262;DHT22;7733;51.554;13.590;2023-03-24T11:29:19;16.80;99.90
15262;DHT22;7733;51.554;13.590;2023-03-24T11:32:02;16.80;99.90
15262;DHT22;7733;51.554;13.590;2023-03-24T11:34:37;16.90;99.90
15262;DHT22;7733;51.554;13.590;2023-03-24T11:37:20;17.00;99.90
15262;DHT22;7733;51.554;13.590;2023-03-24T11:40:13;17.00;99.90
15262;DHT22;7733;51.554;13.590;2023-03-24T11:42:46;17.00;99.90
15262;DHT22;7733;51.554;13.590;2023-03-24T11:45:40;16.80;99.90
15262;DHT22;7733;51.554;13.590;2023-03-24T11:51:04;16.70;99.90
15262;DHT22;7733;51.554;13.590;2023-03-24T11:53:45;16.70;99.90
15262;DHT22;7733;51.554;13.590;2023-03-24T11:59:01;17.20;99.90
15262;DHT22;7733;51.554;13.590;2023-03-24T12:01:35;17.20;99.90
15262;DHT22;7733;51.554;13.590;2023-03-24T12:12:37;16.40;99.90
15262;DHT22;7733;51.554;13.590;2023-03-24T12:27:48;14.80;99.90
15262;DHT22;7733;51.554;13.590;2023-03-24T12:33:50;14.60;99.90
15262;DHT22;7733;51.554;13.590;2023-03-24T12:39:34;14.40;99.90
15262;DHT22;7733;51.554;13.590;2023-03-24T12:42:19;14.10;99.90
15262;DHT22;7733;51.554;13.590;2023-03-24T12:45:22;14.00;99.90
15262;DHT22;7733;51.554;13.590;2023-03-24T12:48:19;13.90;99.90
15262;DHT22;7733;51.554;13.590;2023-03-24T12:53:28;13.80;99.90
15262;DHT22;7733;51.554;13.590;2023-03-24T13:01:40;13.80;99.90
15262;DHT22;7733;51.554;13.590;2023-03-24T13:04:16;13.70;99.90
15262;DHT22;7733;51.554;13.590;2023-03-24T13:06:47;13.60;99.90
15262;DHT22;7733;51.554;13.590;2023-03-24T13:09:48;13.50;99.90
15262;DHT22;7733;51.554;13.590;2023-03-24T13:12:39;13.40;99.90
15262;DHT22;7733;51.554;13.590;2023-03-24T13:20:40;13.00;99.90
15262;DHT22;7733;51.554;13.590;2023-03-24T13:32:24;12.60;99.90
15262;DHT22;7733;51.554;13.590;2023-03-24T13:35:10;12.60;99.90
15262;DHT22;7733;51.554;13.590;2023-03-24T13:38:15;12.70;99.90
15262;DHT22;7733;51.554;13.590;2023-03-24T13:40:52;12.70;99.90
15262;DHT22;7733;51.554;13.590;2023-03-24T13:43:25;12.60;99.90
15262;DHT22;7733;51.554;13.590;2023-03-24T13:46:02;12.60;99.90
15262;DHT22;7733;51.554;13.590;2023-03-24T13:53:55;12.60;99.90
15262;DHT22;7733;51.554;13.590;2023-03-24T13:56:35;12.50;99.90
15262;DHT22;7733;51.554;13.590;2023-03-24T14:02:22;12.50;99.90
15262;DHT22;7733;51.554;13.590;2023-03-24T14:10:41;12.30;99.90
15262;DHT22;7733;51.554;13.590;2023-03-24T14:26:00;11.90;99.90
15262;DHT22;7733;51.554;13.590;2023-03-24T14:28:38;11.80;99.90
15262;DHT22;7733;51.554;13.590;2023-03-24T14:34:07;11.80;99.90
15262;DHT22;7733;51.554;13.590;2023-03-24T14:36:40;11.80;99.90
15262;DHT22;7733;51.554;13.590;2023-03-24T14:42:26;11.80;99.90
15262;DHT22;7733;51.554;13.590;2023-03-24T14:45:05;11.90;99.90
15262;DHT22;7733;51.554;13.590;2023-03-24T14:48:22;11.80;99.90
15262;DHT22;7733;51.554;13.590;2023-03-24T14:50:53;11.90;99.90
15262;DHT22;7733;51.554;13.590;2023-03-24T14:53:22;11.90;99.90
15262;DHT22;7733;51.554;13.590;2023-03-24T14:55:48;12.10;99.90
15262;DHT22;7733;51.554;13.590;2023-03-24T14:58:25;12.30;99.90
15262;DHT22;7733;51.554;13.590;2023-03-24T15:01:02;12.40;99.90
15262;DHT22;7733;51.554;13.590;2023-03-24T15:03:59;12.50;99.90
15262;DHT22;7733;51.554;13.590;2023-03-24T15:06:31;12.60;99.90
15262;DHT22;7733;51.554;13.590;2023-03-24T15:08:59;12.70;99.90
15262;DHT22;7733;51.554;13.590;2023-03-24T15:11:34;12.70;99.90
15262;DHT22;7733;51.554;13.590;2023-03-24T15:14:04;12.70;99.90
15262;DHT22;7733;51.554;13.590;2023-03-24T15:16:33;12.50;99.90
15262;DHT22;7733;51.554;13.590;2023-03-24T15:19:08;12.60;99.90
15262;DHT22;7733;51.554;13.590;2023-03-24T15:21:49;12.50;99.90
15262;DHT22;7733;51.554;13.590;2023-03-24T15:24:29;12.40;99.90
15262;DHT22;7733;51.554;13.590;2023-03-24T15:29:37;12.20;99.90
15262;DHT22;7733;51.554;13.590;2023-03-24T15:32:05;12.20;99.90
15262;DHT22;7733;51.554;13.590;2023-03-24T15:34:40;12.10;99.90
15262;DHT22;7733;51.554;13.590;2023-03-24T15:37:31;12.10;99.90
15262;DHT22;7733;51.554;13.590;2023-03-24T15:40:04;12.00;99.90
15262;DHT22;7733;51.554;13.590;2023-03-24T15:42:30;11.90;99.90
15262;DHT22;7733;51.554;13.590;2023-03-24T15:45:09;12.10;99.90
15262;DHT22;7733;51.554;13.590;2023-03-24T15:47:43;12.10;99.90
15262;DHT22;7733;51.554;13.590;2023-03-24T15:50:34;12.10;99.90
15262;DHT22;7733;51.554;13.590;2023-03-24T15:55:43;12.00;99.90
15262;DHT22;7733;51.554;13.590;2023-03-24T15:58:27;12.00;99.90
15262;DHT22;7733;51.554;13.590;2023-03-24T16:00:58;11.90;99.90
15262;DHT22;7733;51.554;13.590;2023-03-24T16:03:28;11.80;99.90
15262;DHT22;7733;51.554;13.590;2023-03-24T16:05:56;11.80;99.90
15262;DHT22;7733;51.554;13.590;2023-03-24T16:08:28;11.70;99.90
15262;DHT22;7733;51.554;13.590;2023-03-24T16:11:12;11.60;99.90
15262;DHT22;7733;51.554;13.590;2023-03-24T16:13:40;11.60;99.90
15262;DHT22;7733;51.554;13.590;2023-03-24T16:18:43;11.60;99.90
15262;DHT22;7733;51.554;13.590;2023-03-24T16:21:15;11.60;99.90
15262;DHT22;7733;51.554;13.590;2023-03-24T16:23:53;11.60;99.90
15262;DHT22;7733;51.554;13.590;2023-03-24T16:26:31;11.70;99.90
15262;DHT22;7733;51.554;13.590;2023-03-24T16:29:20;11.80;99.90
15262;DHT22;7733;51.554;13.590;2023-03-24T16:31:50;11.70;99.90
15262;DHT22;7733;51.554;13.590;2023-03-24T16:34:19;11.70;99.90
15262;DHT22;7733;51.554;13.590;2023-03-24T16:36:47;11.70;99.90
15262;DHT22;7733;51.554;13.590;2023-03-24T16:39:23;11.70;99.90
15262;DHT22;7733;51.554;13.590;2023-03-24T16:41:50;11.70;99.90
15262;DHT22;7733;51.554;13.590;2023-03-24T16:44:17;11.70;99.90
15262;DHT22;7733;51.554;13.590;2023-03-24T16:46:45;11.70;99.90
15262;DHT22;7733;51.554;13.590;2023-03-24T16:49:14;11.70;99.90
15262;DHT22;7733;51.554;13.590;2023-03-24T16:51:41;11.70;99.90
15262;DHT22;7733;51.554;13.590;2023-03-24T16:54:08;11.70;99.90
15262;DHT22;7733;51.554;13.590;2023-03-24T16:56:35;11.60;99.90
15262;DHT22;7733;51.554;13.590;2023-03-24T16:59:02;11.60;99.90
15262;DHT22;7733;51.554;13.590;2023-03-24T17:01:47;11.60;99.90
15262;DHT22;7733;51.554;13.590;2023-03-24T17:04:18;11.60;99.90
15262;DHT22;7733;51.554;13.590;2023-03-24T17:06:48;11.50;99.90
15262;DHT22;7733;51.554;13.590;2023-03-24T17:09:18;11.50;99.90
15262;DHT22;7733;51.554;13.590;2023-03-24T17:11:49;11.50;99.90
15262;DHT22;7733;51.554;13.590;2023-03-24T17:14:17;11.30;99.90
15262;DHT22;7733;51.554;13.590;2023-03-24T17:16:44;11.30;99.90
15262;DHT22;7733;51.554;13.590;2023-03-24T17:19:18;11.30;99.90
15262;DHT22;7733;51.554;13.590;2023-03-24T17:21:57;11.30;99.90
15262;DHT22;7733;51.554;13.590;2023-03-24T17:24:25;11.40;99.90
15262;DHT22;7733;51.554;13.590;2023-03-24T17:26:51;11.40;99.90
15262;DHT22;7733;51.554;13.590;2023-03-24T17:29:17;11.30;99.90
15262;DHT22;7733;51.554;13.590;2023-03-24T17:31:42;11.30;99.90
15262;DHT22;7733;51.554;13.590;2023-03-24T17:34:11;11.20;99.90
15262;DHT22;7733;51.554;13.590;2023-03-24T17:36:38;11.10;99.90
15262;DHT22;7733;51.554;13.590;2023-03-24T17:39:03;11.20;99.90
15262;DHT22;7733;51.554;13.590;2023-03-24T17:41:30;11.10;99.90
15262;DHT22;7733;51.554;13.590;2023-03-24T17:43:55;11.00;99.90
15262;DHT22;7733;51.554;13.590;2023-03-24T17:46:21;11.00;99.90
15262;DHT22;7733;51.554;13.590;2023-03-24T17:48:47;11.00;99.90
15262;DHT22;7733;51.554;13.590;2023-03-24T17:51:12;10.90;99.90
15262;DHT22;7733;51.554;13.590;2023-03-24T17:53:38;10.80;99.90
15262;DHT22;7733;51.554;13.590;2023-03-24T17:56:04;10.80;99.90
15262;DHT22;7733;51.554;13.590;2023-03-24T17:58:33;10.80;99.90
15262;DHT22;7733;51.554;13.590;2023-03-24T18:01:04;11.00;99.90
15262;DHT22;7733;51.554;13.590;2023-03-24T18:03:35;11.10;99.90
15262;DHT22;7733;51.554;13.590;2023-03-24T18:06:10;11.10;99.90
15262;DHT22;7733;51.554;13.590;2023-03-24T18:08:37;11.00;99.90
15262;DHT22;7733;51.554;13.590;2023-03-24T18:11:13;11.00;99.90
15262;DHT22;7733;51.554;13.590;2023-03-24T18:13:40;11.00;99.90
15262;DHT22;7733;51.554;13.590;2023-03-24T18:16:07;10.90;99.90
15262;DHT22;7733;51.554;13.590;2023-03-24T18:18:35;11.00;99.90
15262;DHT22;7733;51.554;13.590;2023-03-24T18:21:03;11.00;99.90
15262;DHT22;7733;51.554;13.590;2023-03-24T18:23:35;11.00;99.90
15262;DHT22;7733;51.554;13.590;2023-03-24T18:26:03;10.90;99.90
15262;DHT22;7733;51.554;13.590;2023-03-24T18:28:33;10.70;99.90
15262;DHT22;7733;51.554;13.590;2023-03-24T18:30:59;10.60;99.90
15262;DHT22;7733;51.554;13.590;2023-03-24T18:33:26;10.40;99.90
15262;DHT22;7733;51.554;13.590;2023-03-24T18:35:56;10.40;99.90
15262;DHT22;7733;51.554;13.590;2023-03-24T18:38:23;10.40;99.90
15262;DHT22;7733;51.554;13.590;2023-03-24T18:41:07;10.40;99.90
15262;DHT22;7733;51.554;13.590;2023-03-24T18:43:41;10.30;99.90
15262;DHT22;7733;51.554;13.590;2023-03-24T18:46:08;10.30;99.90
15262;DHT22;7733;51.554;13.590;2023-03-24T18:48:36;10.30;99.90